createdAt,value
2018-09-06T00:01:43.271Z,23.90
2018-09-06T00:04:11.652Z,26.97
2018-09-06T00:06:40.099Z,25.97
2018-09-06T00:09:09.293Z,26.13
2018-09-06T00:11:37.763Z,29.87
2018-09-06T00:14:06.955Z,26.13
2018-09-06T00:16:36.044Z,26.47
2018-09-06T00:19:05.232Z,24.17
2018-09-06T00:21:33.640Z,25.07
2018-09-06T00:24:02.408Z,24.07
2018-09-06T00:26:31.456Z,25.40
2018-09-06T00:29:00.160Z,24.23
2018-09-06T00:31:28.941Z,24.47
2018-09-06T00:33:57.542Z,23.30
2018-09-06T00:36:26.233Z,24.90
2018-09-06T00:38:54.706Z,24.70
2018-09-06T00:41:23.103Z,23.67
2018-09-06T00:43:51.535Z,25.33
2018-09-06T00:46:20.045Z,26.67
2018-09-06T00:48:48.531Z,27.23
2018-09-06T00:51:16.948Z,25.13
2018-09-06T00:53:45.427Z,25.67
2018-09-06T00:56:13.908Z,25.70
2018-09-06T00:58:42.291Z,27.37
2018-09-06T01:01:10.713Z,27.00
2018-09-06T01:03:39.107Z,30.17
2018-09-06T01:06:07.862Z,27.07
2018-09-06T01:08:36.212Z,26.23
2018-09-06T01:11:05.666Z,27.00
2018-09-06T01:13:34.944Z,28.43
2018-09-06T01:16:03.388Z,25.97
2018-09-06T01:18:31.807Z,27.20
2018-09-06T01:21:00.237Z,26.07
2018-09-06T01:23:28.957Z,28.17
2018-09-06T01:25:57.912Z,28.30
2018-09-06T01:28:26.360Z,27.77
2018-09-06T01:30:55.403Z,28.17
2018-09-06T01:33:23.808Z,29.37
2018-09-06T01:35:57.569Z,28.73
2018-09-06T01:38:26.011Z,28.37
2018-09-06T01:40:54.414Z,27.57
2018-09-06T01:43:22.799Z,28.20
2018-09-06T01:45:51.190Z,29.23
2018-09-06T01:48:19.621Z,28.57
2018-09-06T01:50:48.081Z,30.27
2018-09-06T01:53:16.650Z,29.03
2018-09-06T01:55:45.125Z,30.37
2018-09-06T01:58:13.554Z,29.67
2018-09-06T02:00:41.981Z,31.83
2018-09-06T02:03:10.351Z,30.73
2018-09-06T02:05:39.477Z,29.00
2018-09-06T02:08:08.536Z,29.03
2018-09-06T02:10:36.998Z,30.50
2018-09-06T02:13:06.169Z,29.47
2018-09-06T02:15:34.824Z,31.70
2018-09-06T02:18:03.247Z,28.27
2018-09-06T02:20:31.676Z,28.90
2018-09-06T02:23:00.093Z,28.10
2018-09-06T02:25:28.522Z,28.57
2018-09-06T02:27:56.942Z,28.70
2018-09-06T02:30:25.641Z,30.13
2018-09-06T02:32:54.683Z,27.53
2018-09-06T02:35:23.805Z,26.90
2018-09-06T02:37:53.161Z,27.83
2018-09-06T02:40:27.495Z,24.23
2018-09-06T02:42:56.589Z,26.37
2018-09-06T02:45:25.725Z,26.17
2018-09-06T02:47:55.864Z,26.07
2018-09-06T02:51:34.039Z,24.63
2018-09-06T02:54:03.389Z,28.87
2018-09-06T02:56:32.332Z,25.60
2018-09-06T02:59:01.406Z,25.90
2018-09-06T03:01:30.577Z,25.77
2018-09-06T03:03:59.736Z,25.53
2018-09-06T03:06:28.418Z,25.53
2018-09-06T03:08:57.080Z,26.73
2018-09-06T03:11:28.794Z,24.97
2018-09-06T03:13:57.637Z,24.47
2018-09-06T03:16:26.116Z,23.97
2018-09-06T03:18:54.554Z,24.43
2018-09-06T03:21:22.981Z,24.87
2018-09-06T03:23:51.632Z,24.73
2018-09-06T03:26:20.779Z,26.03
2018-09-06T03:28:50.488Z,24.30
2018-09-06T03:31:19.202Z,23.07
2018-09-06T03:33:47.733Z,24.23
2018-09-06T03:36:16.410Z,24.20
2018-09-06T03:38:45.363Z,26.70
2018-09-06T03:41:13.848Z,25.73
2018-09-06T03:43:42.296Z,25.60
2018-09-06T03:46:10.699Z,25.27
2018-09-06T03:48:39.139Z,26.27
2018-09-06T03:51:07.819Z,24.70
2018-09-06T03:53:36.859Z,25.63
2018-09-06T03:56:05.242Z,24.47
2018-09-06T03:58:33.641Z,28.13
2018-09-06T04:01:02.182Z,29.63
2018-09-06T04:03:30.576Z,27.17
2018-09-06T04:05:58.955Z,29.30
2018-09-06T04:08:27.604Z,29.70
2018-09-06T04:10:55.968Z,29.53
2018-09-06T04:13:24.299Z,30.27
2018-09-06T04:15:52.724Z,31.53
2018-09-06T04:18:21.135Z,32.60
2018-09-06T04:20:49.503Z,35.27
2018-09-06T04:23:17.986Z,31.53
2018-09-06T04:25:46.386Z,31.53
2018-09-06T04:28:15.288Z,32.83
2018-09-06T04:30:43.706Z,30.40
2018-09-06T04:33:12.061Z,33.17
2018-09-06T04:35:40.433Z,32.73
2018-09-06T04:38:08.873Z,33.37
2018-09-06T04:40:37.265Z,33.07
2018-09-06T04:43:05.712Z,34.03
2018-09-06T04:45:34.626Z,35.43
2018-09-06T04:48:03.067Z,38.50
2018-09-06T04:50:31.425Z,36.33
2018-09-06T04:52:59.800Z,38.50
2018-09-06T04:55:28.239Z,40.77
2018-09-06T04:57:56.673Z,38.63
2018-09-06T05:00:24.989Z,40.70
2018-09-06T05:02:53.367Z,41.53
2018-09-06T05:05:21.754Z,43.37
2018-09-06T05:07:50.118Z,41.87
2018-09-06T05:10:18.513Z,42.73
2018-09-06T05:12:46.926Z,40.03
2018-09-06T05:15:15.330Z,40.60
2018-09-06T05:17:43.674Z,41.43
2018-09-06T05:20:12.044Z,43.63
2018-09-06T05:22:40.473Z,46.47
2018-09-06T05:25:09.137Z,53.83
2018-09-06T05:27:37.505Z,46.80
2018-09-06T05:30:06.293Z,57.90
2018-09-06T05:32:34.964Z,54.83
2018-09-06T05:35:03.433Z,62.80
2018-09-06T05:37:31.819Z,62.40
2018-09-06T05:40:00.172Z,65.67
2018-09-06T05:42:28.572Z,59.93
2018-09-06T05:44:56.899Z,64.47
2018-09-06T05:47:25.311Z,69.40
2018-09-06T05:49:53.643Z,62.17
2018-09-06T05:52:22.354Z,64.90
2018-09-06T05:54:50.696Z,64.20
2018-09-06T05:57:19.056Z,64.97
2018-09-06T05:59:47.419Z,62.40
2018-09-06T06:02:15.831Z,62.63
2018-09-06T06:04:44.211Z,65.80
2018-09-06T06:07:12.588Z,61.60
2018-09-06T06:09:41.023Z,61.87
2018-09-06T06:12:09.501Z,62.80
2018-09-06T06:14:38.462Z,58.73
2018-09-06T06:17:06.901Z,56.77
2018-09-06T06:19:35.276Z,63.67
2018-09-06T06:22:03.789Z,65.83
2018-09-06T06:24:32.195Z,60.90
2018-09-06T06:27:00.588Z,65.83
2018-09-06T06:29:28.979Z,62.10
2018-09-06T06:31:57.443Z,62.23
2018-09-06T06:34:25.836Z,65.17
2018-09-06T06:36:54.234Z,64.40
2018-09-06T06:39:22.628Z,61.27
2018-09-06T06:41:51.043Z,62.63
2018-09-06T06:44:19.540Z,63.47
2018-09-06T06:46:47.983Z,62.83
2018-09-06T06:49:16.333Z,63.33
2018-09-06T06:51:44.782Z,63.33
2018-09-06T06:54:13.185Z,60.67
2018-09-06T06:56:41.586Z,57.53
2018-09-06T06:59:10.046Z,57.20
2018-09-06T07:01:38.415Z,52.03
2018-09-06T07:04:06.889Z,56.13
2018-09-06T07:06:35.197Z,54.33
2018-09-06T07:09:03.761Z,60.10
2018-09-06T07:11:32.144Z,57.53
2018-09-06T07:14:00.528Z,57.80
2018-09-06T07:16:28.928Z,58.03
2018-09-06T07:18:57.373Z,62.30
2018-09-06T07:21:25.885Z,53.93
2018-09-06T07:23:54.275Z,53.43
2018-09-06T07:26:22.761Z,55.47
2018-09-06T07:28:51.199Z,50.03
2018-09-06T07:31:19.670Z,47.87
2018-09-06T07:33:48.822Z,47.43
2018-09-06T07:36:17.530Z,46.63
2018-09-06T07:38:45.913Z,47.40
2018-09-06T07:41:14.304Z,48.97
2018-09-06T07:43:42.789Z,47.43
2018-09-06T07:46:11.193Z,44.40
2018-09-06T07:48:39.574Z,44.07
2018-09-06T07:51:07.964Z,41.97
2018-09-06T07:53:36.461Z,42.50
2018-09-06T07:56:05.720Z,41.17
2018-09-06T07:58:34.114Z,44.37
2018-09-06T08:01:02.833Z,39.33
2018-09-06T08:03:32.308Z,36.93
2018-09-06T08:06:00.737Z,38.80
2018-09-06T08:08:29.274Z,37.60
2018-09-06T08:10:57.729Z,36.50
2018-09-06T08:13:26.651Z,38.87
2018-09-06T08:15:55.049Z,37.23
2018-09-06T08:18:23.422Z,34.23
2018-09-06T08:20:51.916Z,33.90
2018-09-06T08:23:20.617Z,30.57
2018-09-06T08:25:48.991Z,28.77
2018-09-06T08:28:17.611Z,27.23
2018-09-06T08:30:46.513Z,27.43
2018-09-06T08:33:15.199Z,26.30
2018-09-06T08:35:43.630Z,27.53
2018-09-06T08:38:12.028Z,26.20
2018-09-06T08:40:40.447Z,25.33
2018-09-06T08:43:08.857Z,24.13
2018-09-06T08:45:37.596Z,21.83
2018-09-06T08:48:06.355Z,19.03
2018-09-06T08:50:34.884Z,20.40
2018-09-06T08:53:03.339Z,19.93
2018-09-06T08:55:31.687Z,19.53
2018-09-06T08:58:00.556Z,20.53
2018-09-06T09:00:28.981Z,18.73
2018-09-06T09:02:57.449Z,19.60
2018-09-06T09:05:25.953Z,21.37
2018-09-06T09:07:54.409Z,21.97
2018-09-06T09:10:22.803Z,19.87
2018-09-06T09:12:51.174Z,21.57
2018-09-06T09:15:19.587Z,21.50
2018-09-06T09:17:48.034Z,20.93
2018-09-06T09:20:16.449Z,21.40
2018-09-06T09:22:44.886Z,21.23
2018-09-06T09:25:13.714Z,22.40
2018-09-06T09:27:42.187Z,20.30
2018-09-06T09:30:10.645Z,20.73
2018-09-06T09:32:39.024Z,21.07
2018-09-06T09:35:07.662Z,22.47
2018-09-06T09:37:35.992Z,20.43
2018-09-06T09:40:04.910Z,22.50
2018-09-06T09:42:33.325Z,26.80
2018-09-06T09:45:01.712Z,34.30
2018-09-06T09:49:57.737Z,31.63
2018-09-06T09:52:26.337Z,32.33
2018-09-06T09:54:54.745Z,31.97
2018-09-06T09:57:23.282Z,34.10
2018-09-06T09:59:51.708Z,35.17
2018-09-06T10:02:25.277Z,39.33
2018-09-06T10:04:59.892Z,35.90
2018-09-06T10:07:33.728Z,36.27
2018-09-06T10:10:02.183Z,37.53
2018-09-06T10:12:30.539Z,34.23
2018-09-06T10:14:58.855Z,33.40
2018-09-06T10:17:27.255Z,32.73
2018-09-06T10:19:55.624Z,33.77
2018-09-06T10:22:23.984Z,33.97
2018-09-06T10:24:52.356Z,35.17
2018-09-06T10:27:21.017Z,34.27
2018-09-06T10:29:49.422Z,35.63
2018-09-06T10:32:17.956Z,33.47
2018-09-06T10:34:46.420Z,37.57
2018-09-06T10:37:14.974Z,36.07
2018-09-06T10:39:43.592Z,33.73
2018-09-06T10:42:12.265Z,34.63
2018-09-06T10:44:40.780Z,32.87
2018-09-06T10:47:09.266Z,35.33
2018-09-06T10:49:37.745Z,30.83
2018-09-06T10:52:06.435Z,34.83
2018-09-06T10:54:34.934Z,31.90
2018-09-06T10:57:03.434Z,37.73
2018-09-06T10:59:31.838Z,30.20
2018-09-06T11:02:00.252Z,30.70
2018-09-06T11:04:28.710Z,29.03
2018-09-06T11:06:57.126Z,34.17
2018-09-06T11:09:25.568Z,35.10
2018-09-06T11:11:53.902Z,34.03
2018-09-06T11:14:22.590Z,35.50
2018-09-06T11:16:52.239Z,33.97
2018-09-06T11:19:20.619Z,33.53
2018-09-06T11:21:49.451Z,32.43
2018-09-06T11:24:17.718Z,33.83
2018-09-06T11:26:46.115Z,33.03
2018-09-06T11:29:14.524Z,33.00
2018-09-06T11:31:42.892Z,36.30
2018-09-06T11:34:11.365Z,38.70
2018-09-06T11:36:39.818Z,39.83
2018-09-06T11:39:09.886Z,37.30
2018-09-06T11:41:38.815Z,37.03
2018-09-06T11:44:07.411Z,37.13
2018-09-06T11:46:35.878Z,36.73
2018-09-06T11:49:04.253Z,33.10
2018-09-06T11:51:33.107Z,34.70
2018-09-06T11:54:01.549Z,35.50
2018-09-06T11:56:30.574Z,34.43
2018-09-06T11:58:59.224Z,31.67
2018-09-06T12:01:27.641Z,29.57
2018-09-06T12:03:56.356Z,27.83
2018-09-06T12:06:24.762Z,29.27
2018-09-06T12:08:53.172Z,29.90
2018-09-06T12:11:21.516Z,30.63
2018-09-06T12:13:49.958Z,29.57
2018-09-06T12:16:18.429Z,29.60
2018-09-06T12:18:46.857Z,31.33
2018-09-06T12:21:15.222Z,27.23
2018-09-06T12:23:43.744Z,28.13
2018-09-06T12:26:12.970Z,31.47
2018-09-06T12:28:41.339Z,24.73
2018-09-06T12:31:09.727Z,24.20
2018-09-06T12:33:38.280Z,25.70
2018-09-06T12:36:06.688Z,25.63
2018-09-06T12:38:35.179Z,23.93
2018-09-06T12:41:03.607Z,24.57
2018-09-06T12:43:32.070Z,24.80
2018-09-06T12:46:00.948Z,26.70
2018-09-06T12:48:29.442Z,28.37
2018-09-06T12:50:58.274Z,28.80
2018-09-06T12:53:26.692Z,31.23
2018-09-06T12:55:55.123Z,30.43
2018-09-06T12:58:23.557Z,31.90
2018-09-06T13:00:53.133Z,30.50
2018-09-06T13:03:21.817Z,30.37
2018-09-06T13:05:50.700Z,29.93
2018-09-06T13:08:19.499Z,30.93
2018-09-06T13:10:47.978Z,29.50
2018-09-06T13:13:16.378Z,27.53
2018-09-06T13:15:44.752Z,24.70
2018-09-06T13:18:13.333Z,23.87
2018-09-06T13:20:41.747Z,22.90
2018-09-06T13:23:11.060Z,20.70
2018-09-06T13:25:39.479Z,19.90
2018-09-06T13:28:07.849Z,19.33
2018-09-06T13:37:22.321Z,11.00
2018-09-06T13:39:50.841Z,10.20
2018-09-06T13:42:19.285Z,9.33
2018-09-06T13:44:48.010Z,9.17
2018-09-06T13:47:16.412Z,10.37
2018-09-06T13:49:44.819Z,9.13
2018-09-06T13:52:13.603Z,10.33
2018-09-06T13:54:42.473Z,10.50
2018-09-06T13:57:11.088Z,9.97
2018-09-06T13:59:39.670Z,10.20
2018-09-06T14:02:08.347Z,10.37
2018-09-06T14:04:36.819Z,10.53
2018-09-06T14:07:05.568Z,13.17
2018-09-06T14:09:34.041Z,10.40
2018-09-06T14:12:03.916Z,11.33
2018-09-06T14:14:32.798Z,10.77
2018-09-06T14:17:01.375Z,12.43
2018-09-06T14:19:29.791Z,13.80
2018-09-06T14:21:58.135Z,11.90
2018-09-06T14:24:26.600Z,10.73
2018-09-06T14:26:55.114Z,10.60
2018-09-06T14:29:23.799Z,11.40
2018-09-06T14:31:52.245Z,10.33
2018-09-06T14:34:20.582Z,11.10
2018-09-06T14:36:49.319Z,10.93
2018-09-06T14:39:18.499Z,11.67
2018-09-06T14:41:46.941Z,11.13
2018-09-06T14:44:15.512Z,10.50
2018-09-06T14:46:43.931Z,9.50
2018-09-06T14:49:12.919Z,10.27
2018-09-06T14:51:42.162Z,9.70
2018-09-06T14:54:10.841Z,11.20
2018-09-06T14:56:39.210Z,13.77
2018-09-06T14:59:07.660Z,11.23
2018-09-06T15:01:36.057Z,9.60
2018-09-06T15:04:04.564Z,10.53
2018-09-06T15:06:32.965Z,8.90
2018-09-06T15:09:02.132Z,9.27
2018-09-06T15:11:30.552Z,9.43
2018-09-06T15:13:59.029Z,7.03
2018-09-06T15:16:27.374Z,6.77
2018-09-06T15:18:55.864Z,9.13
2018-09-06T15:21:24.413Z,6.80
2018-09-06T15:23:52.861Z,8.43
2018-09-06T15:26:21.244Z,6.03
2018-09-06T15:28:49.692Z,4.93
2018-09-06T15:31:18.422Z,6.70
2018-09-06T15:33:46.898Z,6.50
2018-09-06T15:36:15.796Z,5.67
2018-09-06T15:38:44.285Z,8.90
2018-09-06T15:41:12.650Z,6.20
2018-09-06T15:43:41.301Z,6.17
2018-09-06T15:46:09.852Z,6.23
2018-09-06T15:48:38.227Z,8.43
2018-09-06T15:51:06.999Z,6.67
2018-09-06T15:53:35.455Z,8.17
2018-09-06T15:56:03.785Z,3.50
2018-09-06T15:58:32.137Z,3.40
2018-09-06T16:01:00.558Z,4.47
2018-09-06T16:03:28.963Z,3.80
2018-09-06T16:05:57.333Z,3.57
2018-09-06T16:08:25.926Z,3.27
2018-09-06T16:10:54.335Z,4.23
2018-09-06T16:13:23.280Z,3.87
2018-09-06T16:15:51.752Z,3.47
2018-09-06T16:18:20.552Z,4.37
2018-09-06T16:20:48.916Z,4.03
2018-09-06T16:23:17.406Z,2.50
2018-09-06T16:25:45.915Z,2.53
2018-09-06T16:28:14.329Z,3.40
2018-09-06T16:30:42.718Z,2.73
2018-09-06T16:33:11.176Z,2.50
2018-09-06T16:35:39.644Z,2.67
2018-09-06T16:38:08.060Z,2.10
2018-09-06T16:40:36.446Z,2.73
2018-09-06T16:43:05.126Z,2.50
2018-09-06T16:45:33.538Z,2.30
2018-09-06T16:48:02.041Z,2.30
2018-09-06T16:50:30.389Z,2.73
2018-09-06T16:52:58.775Z,2.43
2018-09-06T16:55:27.260Z,2.30
2018-09-06T16:57:55.686Z,2.17
2018-09-06T17:00:24.452Z,2.50
2018-09-06T17:02:52.904Z,2.40
2018-09-06T17:05:21.417Z,2.60
2018-09-06T17:07:49.884Z,2.43
2018-09-06T17:10:18.425Z,2.87
2018-09-06T17:12:46.776Z,2.83
2018-09-06T17:15:15.215Z,2.37
2018-09-06T17:17:43.634Z,5.60
2018-09-06T17:20:12.054Z,5.17
2018-09-06T17:22:41.025Z,5.00
2018-09-06T17:25:09.533Z,3.17
2018-09-06T17:27:37.973Z,4.47
2018-09-06T17:30:06.561Z,4.97
2018-09-06T17:32:35.087Z,4.67
2018-09-06T17:35:03.837Z,2.60
2018-09-06T17:37:32.239Z,3.67
2018-09-06T17:40:00.801Z,4.23
2018-09-06T17:42:30.686Z,6.00
2018-09-06T17:44:59.331Z,4.93
2018-09-06T17:47:27.751Z,6.53
2018-09-06T17:49:56.133Z,4.70
2018-09-06T17:52:24.590Z,7.87
2018-09-06T17:54:53.017Z,7.87
2018-09-06T17:57:21.420Z,6.40
2018-09-06T17:59:49.841Z,7.37
2018-09-06T18:02:18.227Z,10.57
2018-09-06T18:04:46.665Z,5.70
2018-09-06T18:07:15.103Z,7.70
2018-09-06T18:09:43.529Z,8.27
2018-09-06T18:12:11.904Z,9.37
2018-09-06T18:14:40.441Z,7.60
2018-09-06T18:17:08.978Z,8.60
2018-09-06T18:19:37.512Z,7.93
2018-09-06T18:22:06.004Z,9.37
2018-09-06T18:24:34.508Z,6.00
2018-09-06T18:27:02.940Z,9.00
2018-09-06T18:29:31.390Z,13.20
2018-09-06T18:31:59.863Z,12.17
2018-09-06T18:34:28.354Z,8.10
2018-09-06T18:36:56.801Z,9.47
2018-09-06T18:39:25.344Z,10.17
2018-09-06T18:41:53.711Z,10.63
2018-09-06T18:44:22.063Z,8.47
2018-09-06T18:46:50.532Z,10.13
2018-09-06T18:49:18.917Z,8.13
2018-09-06T18:51:50.831Z,7.40
2018-09-06T18:54:19.425Z,8.73
2018-09-06T18:56:47.832Z,9.53
2018-09-06T18:59:16.251Z,7.90
2018-09-06T19:01:44.904Z,8.07
2018-09-06T19:04:13.327Z,7.63
2018-09-06T19:06:41.696Z,9.17
2018-09-06T19:09:11.608Z,7.57
2018-09-06T19:11:39.900Z,11.87
2018-09-06T19:14:08.348Z,9.63
2018-09-06T19:16:37.083Z,11.93
2018-09-06T19:19:05.966Z,13.97
2018-09-06T19:21:34.358Z,10.03
2018-09-06T19:24:02.768Z,8.90
2018-09-06T19:26:31.143Z,13.57
2018-09-06T19:28:59.575Z,8.33
2018-09-06T19:31:28.263Z,13.07
2018-09-06T19:33:56.784Z,12.23
2018-09-06T19:36:25.236Z,10.80
2018-09-06T19:38:54.154Z,9.43
2018-09-06T19:41:22.590Z,11.27
2018-09-06T19:43:51.018Z,8.57
2018-09-06T19:46:19.636Z,10.70
2018-09-06T19:48:48.109Z,12.30
2018-09-06T19:51:16.575Z,10.53
2018-09-06T19:53:45.054Z,10.47
2018-09-06T19:56:13.821Z,11.07
2018-09-06T19:58:42.220Z,13.47
2018-09-06T20:01:10.619Z,12.87
2018-09-06T20:03:39.020Z,10.70
2018-09-06T20:06:07.448Z,10.03
2018-09-06T20:08:36.041Z,11.53
2018-09-06T20:12:33.861Z,11.27
2018-09-06T20:15:02.279Z,8.37
2018-09-06T20:17:30.689Z,10.10
2018-09-06T20:19:59.029Z,9.13
2018-09-06T20:22:27.455Z,7.37
2018-09-06T20:24:55.873Z,6.73
2018-09-06T20:27:24.414Z,11.97
2018-09-06T20:29:52.853Z,10.20
2018-09-06T20:32:21.302Z,12.93
2018-09-06T20:34:49.806Z,11.47
2018-09-06T20:37:18.240Z,10.33
2018-09-06T20:39:46.725Z,7.13
2018-09-06T20:42:15.096Z,5.73
2018-09-06T20:44:43.495Z,13.33
2018-09-06T20:47:11.916Z,12.00
2018-09-06T20:49:40.464Z,10.70
2018-09-06T20:52:08.972Z,10.30
2018-09-06T20:54:37.381Z,9.60
2018-09-06T20:57:06.753Z,8.93
2018-09-06T20:59:35.275Z,9.60
2018-09-06T21:02:09.452Z,10.37
2018-09-06T21:04:37.852Z,8.77
2018-09-06T21:07:06.303Z,10.87
2018-09-06T21:09:34.709Z,8.90
2018-09-06T21:12:03.175Z,9.07
2018-09-06T21:14:31.672Z,7.30
2018-09-06T21:17:00.030Z,8.33
2018-09-06T21:19:28.374Z,6.77
2018-09-06T21:21:57.155Z,6.93
2018-09-06T21:24:25.620Z,7.17
2018-09-06T21:26:54.347Z,11.13
2018-09-06T21:29:22.837Z,7.07
2018-09-06T21:31:51.211Z,11.73
2018-09-06T21:34:19.601Z,8.10
2018-09-06T21:36:48.035Z,8.20
2018-09-06T21:39:16.400Z,7.93
2018-09-06T21:41:44.774Z,9.27
2018-09-06T21:44:13.144Z,8.70
2018-09-06T21:46:41.883Z,7.17
2018-09-06T21:49:10.431Z,8.00
2018-09-06T21:51:38.932Z,8.97
2018-09-06T21:54:07.325Z,10.90
2018-09-06T21:56:35.753Z,9.53
2018-09-06T21:59:04.289Z,8.43
2018-09-06T22:01:32.772Z,8.93
2018-09-06T22:04:03.158Z,10.83
2018-09-06T22:06:31.865Z,8.13
2018-09-06T22:09:00.386Z,8.80
2018-09-06T22:11:28.973Z,10.83
2018-09-06T22:13:57.393Z,9.43
2018-09-06T22:16:26.075Z,9.00
2018-09-06T22:18:54.508Z,10.53
2018-09-06T22:21:22.941Z,10.40
2018-09-06T22:23:51.391Z,13.10
2018-09-06T22:26:19.913Z,10.93
2018-09-06T22:28:48.353Z,13.67
2018-09-06T22:31:16.907Z,8.77
2018-09-06T22:33:45.612Z,13.03
2018-09-06T22:36:14.081Z,11.03
2018-09-06T22:38:42.440Z,11.80
2018-09-06T22:41:10.876Z,12.63
2018-09-06T22:43:39.353Z,10.57
2018-09-06T22:46:07.827Z,15.77
2018-09-06T22:48:36.235Z,13.57
2018-09-06T22:51:05.007Z,12.33
2018-09-06T22:53:33.949Z,12.20
2018-09-06T22:56:02.823Z,14.43
2018-09-06T22:58:31.264Z,11.70
2018-09-06T23:00:59.694Z,12.53
2018-09-06T23:03:33.551Z,11.67
2018-09-06T23:06:02.057Z,11.77
2018-09-06T23:08:30.576Z,13.50
2018-09-06T23:10:58.972Z,12.87
2018-09-06T23:13:27.392Z,12.30
2018-09-06T23:15:55.775Z,15.07
2018-09-06T23:18:24.211Z,12.73
2018-09-06T23:20:52.775Z,13.37
2018-09-06T23:23:21.249Z,14.00
2018-09-06T23:25:49.682Z,13.93
2018-09-06T23:28:18.188Z,12.60
2018-09-06T23:30:46.607Z,13.40
2018-09-06T23:33:15.036Z,16.00
2018-09-06T23:35:46.108Z,11.83
2018-09-06T23:38:16.846Z,14.50
2018-09-06T23:40:50.677Z,14.03
2018-09-06T23:43:19.585Z,15.40
2018-09-06T23:45:51.801Z,13.67
2018-09-06T23:48:21.793Z,12.50
2018-09-06T23:50:50.553Z,12.70
2018-09-06T23:53:19.102Z,14.50
2018-09-06T23:55:47.477Z,13.03
2018-09-06T23:58:15.880Z,13.53
